sensor_id;sensor_type;location;lat;lon;timestamp;temperature;humidity
12329;DHT22;6230;52.390;10.256;2023-07-13T00:01:13;24.10;45.10
12329;DHT22;6230;52.390;10.256;2023-07-13T00:03:39;24.10;45.10
12329;DHT22;6230;52.390;10.256;2023-07-13T00:06:06;24.10;45.10
12329;DHT22;6230;52.390;10.256;2023-07-13T00:08:32;24.10;45.00
12329;DHT22;6230;52.390;10.256;2023-07-13T00:11:01;24.00;44.90
12329;DHT22;6230;52.390;10.256;2023-07-13T00:13:27;24.00;44.90
12329;DHT22;6230;52.390;10.256;2023-07-13T00:15:53;24.00;44.90
12329;DHT22;6230;52.390;10.256;2023-07-13T00:18:20;24.00;45.00
12329;DHT22;6230;52.390;10.256;2023-07-13T00:20:46;24.00;45.00
12329;DHT22;6230;52.390;10.256;2023-07-13T00:23:11;24.00;45.00
12329;DHT22;6230;52.390;10.256;2023-07-13T00:25:37;23.90;45.00
12329;DHT22;6230;52.390;10.256;2023-07-13T00:28:03;23.90;45.10
12329;DHT22;6230;52.390;10.256;2023-07-13T00:30:28;23.80;45.10
12329;DHT22;6230;52.390;10.256;2023-07-13T00:32:54;23.80;45.20
12329;DHT22;6230;52.390;10.256;2023-07-13T00:35:19;23.80;45.20
12329;DHT22;6230;52.390;10.256;2023-07-13T00:37:45;23.70;45.30
12329;DHT22;6230;52.390;10.256;2023-07-13T00:40:12;23.70;45.40
12329;DHT22;6230;52.390;10.256;2023-07-13T00:42:38;23.60;45.50
12329;DHT22;6230;52.390;10.256;2023-07-13T00:47:40;23.50;45.90
12329;DHT22;6230;52.390;10.256;2023-07-13T00:50:08;23.40;46.00
12329;DHT22;6230;52.390;10.256;2023-07-13T00:52:37;23.30;46.20
12329;DHT22;6230;52.390;10.256;2023-07-13T00:55:03;23.20;46.40
12329;DHT22;6230;52.390;10.256;2023-07-13T00:57:29;23.20;46.50
12329;DHT22;6230;52.390;10.256;2023-07-13T01:00:02;23.10;46.60
12329;DHT22;6230;52.390;10.256;2023-07-13T01:02:40;23.10;46.70
12329;DHT22;6230;52.390;10.256;2023-07-13T01:05:16;23.00;46.90
12329;DHT22;6230;52.390;10.256;2023-07-13T01:07:43;23.00;47.00
12329;DHT22;6230;52.390;10.256;2023-07-13T01:10:11;23.00;47.00
12329;DHT22;6230;52.390;10.256;2023-07-13T01:12:36;23.00;47.10
12329;DHT22;6230;52.390;10.256;2023-07-13T01:15:02;22.90;47.10
12329;DHT22;6230;52.390;10.256;2023-07-13T01:17:30;22.90;47.00
12329;DHT22;6230;52.390;10.256;2023-07-13T01:19:56;22.90;47.00
12329;DHT22;6230;52.390;10.256;2023-07-13T01:22:22;22.90;46.90
12329;DHT22;6230;52.390;10.256;2023-07-13T01:24:51;22.90;47.50
12329;DHT22;6230;52.390;10.256;2023-07-13T01:27:20;22.90;46.90
12329;DHT22;6230;52.390;10.256;2023-07-13T01:29:46;22.90;46.90
12329;DHT22;6230;52.390;10.256;2023-07-13T01:32:16;22.90;46.90
12329;DHT22;6230;52.390;10.256;2023-07-13T01:34:42;22.90;46.90
12329;DHT22;6230;52.390;10.256;2023-07-13T01:37:10;22.90;46.90
12329;DHT22;6230;52.390;10.256;2023-07-13T01:39:36;22.80;46.90
12329;DHT22;6230;52.390;10.256;2023-07-13T01:42:03;22.80;46.90
12329;DHT22;6230;52.390;10.256;2023-07-13T01:44:29;22.80;46.90
12329;DHT22;6230;52.390;10.256;2023-07-13T01:46:54;22.70;47.00
12329;DHT22;6230;52.390;10.256;2023-07-13T01:49:20;22.70;47.10
12329;DHT22;6230;52.390;10.256;2023-07-13T01:51:46;22.60;47.20
12329;DHT22;6230;52.390;10.256;2023-07-13T01:54:11;22.60;47.40
12329;DHT22;6230;52.390;10.256;2023-07-13T01:56:37;22.50;47.50
12329;DHT22;6230;52.390;10.256;2023-07-13T01:59:02;22.50;47.60
12329;DHT22;6230;52.390;10.256;2023-07-13T02:01:28;22.40;47.70
12329;DHT22;6230;52.390;10.256;2023-07-13T02:03:53;22.40;47.80
12329;DHT22;6230;52.390;10.256;2023-07-13T02:06:19;22.30;47.80
12329;DHT22;6230;52.390;10.256;2023-07-13T02:08:44;22.30;47.90
12329;DHT22;6230;52.390;10.256;2023-07-13T02:11:10;22.30;47.90
12329;DHT22;6230;52.390;10.256;2023-07-13T02:13:36;22.20;47.90
12329;DHT22;6230;52.390;10.256;2023-07-13T02:16:01;22.20;48.20
12329;DHT22;6230;52.390;10.256;2023-07-13T02:18:27;22.10;48.20
12329;DHT22;6230;52.390;10.256;2023-07-13T02:20:52;22.10;48.20
12329;DHT22;6230;52.390;10.256;2023-07-13T02:23:18;22.10;48.30
12329;DHT22;6230;52.390;10.256;2023-07-13T02:25:44;22.00;48.30
12329;DHT22;6230;52.390;10.256;2023-07-13T02:28:10;22.00;48.20
12329;DHT22;6230;52.390;10.256;2023-07-13T02:30:35;22.10;48.20
12329;DHT22;6230;52.390;10.256;2023-07-13T02:33:01;22.10;48.20
12329;DHT22;6230;52.390;10.256;2023-07-13T02:35:26;22.10;48.10
12329;DHT22;6230;52.390;10.256;2023-07-13T02:37:52;22.10;48.20
12329;DHT22;6230;52.390;10.256;2023-07-13T02:40:17;22.00;48.10
12329;DHT22;6230;52.390;10.256;2023-07-13T02:42:43;22.00;48.20
12329;DHT22;6230;52.390;10.256;2023-07-13T02:45:09;21.90;48.30
12329;DHT22;6230;52.390;10.256;2023-07-13T02:47:36;21.90;48.50
12329;DHT22;6230;52.390;10.256;2023-07-13T02:50:02;21.80;48.50
12329;DHT22;6230;52.390;10.256;2023-07-13T02:52:28;21.80;48.50
12329;DHT22;6230;52.390;10.256;2023-07-13T02:54:53;21.80;48.50
12329;DHT22;6230;52.390;10.256;2023-07-13T02:57:19;21.80;48.50
12329;DHT22;6230;52.390;10.256;2023-07-13T02:59:44;21.80;48.50
12329;DHT22;6230;52.390;10.256;2023-07-13T03:02:10;21.80;48.50
12329;DHT22;6230;52.390;10.256;2023-07-13T03:04:36;21.70;48.50
12329;DHT22;6230;52.390;10.256;2023-07-13T03:07:02;21.70;48.50
12329;DHT22;6230;52.390;10.256;2023-07-13T03:09:28;21.80;48.50
12329;DHT22;6230;52.390;10.256;2023-07-13T03:11:54;21.80;48.50
12329;DHT22;6230;52.390;10.256;2023-07-13T03:14:21;21.70;48.50
12329;DHT22;6230;52.390;10.256;2023-07-13T03:16:47;21.70;48.50
12329;DHT22;6230;52.390;10.256;2023-07-13T03:19:13;21.70;48.60
12329;DHT22;6230;52.390;10.256;2023-07-13T03:21:38;21.70;48.70
12329;DHT22;6230;52.390;10.256;2023-07-13T03:24:04;21.70;48.60
12329;DHT22;6230;52.390;10.256;2023-07-13T03:26:29;21.60;48.50
12329;DHT22;6230;52.390;10.256;2023-07-13T03:28:55;21.60;48.60
12329;DHT22;6230;52.390;10.256;2023-07-13T03:31:24;21.70;48.60
12329;DHT22;6230;52.390;10.256;2023-07-13T03:33:50;21.60;48.70
12329;DHT22;6230;52.390;10.256;2023-07-13T03:36:24;21.60;48.70
12329;DHT22;6230;52.390;10.256;2023-07-13T03:38:53;21.60;48.80
12329;DHT22;6230;52.390;10.256;2023-07-13T03:41:19;21.60;48.80
12329;DHT22;6230;52.390;10.256;2023-07-13T03:43:45;21.50;48.80
12329;DHT22;6230;52.390;10.256;2023-07-13T03:46:11;21.50;48.80
12329;DHT22;6230;52.390;10.256;2023-07-13T03:48:36;21.50;48.80
12329;DHT22;6230;52.390;10.256;2023-07-13T03:51:02;21.50;48.70
12329;DHT22;6230;52.390;10.256;2023-07-13T03:53:28;21.60;48.70
12329;DHT22;6230;52.390;10.256;2023-07-13T03:55:53;21.60;48.60
12329;DHT22;6230;52.390;10.256;2023-07-13T03:58:32;21.60;48.60
12329;DHT22;6230;52.390;10.256;2023-07-13T04:00:59;21.60;48.50
12329;DHT22;6230;52.390;10.256;2023-07-13T04:03:25;21.70;48.50
12329;DHT22;6230;52.390;10.256;2023-07-13T04:05:53;21.70;48.50
12329;DHT22;6230;52.390;10.256;2023-07-13T04:08:19;21.70;48.60
12329;DHT22;6230;52.390;10.256;2023-07-13T04:10:45;21.70;48.60
12329;DHT22;6230;52.390;10.256;2023-07-13T04:13:10;21.70;48.60
12329;DHT22;6230;52.390;10.256;2023-07-13T04:15:36;21.70;48.60
12329;DHT22;6230;52.390;10.256;2023-07-13T04:18:02;21.70;48.60
12329;DHT22;6230;52.390;10.256;2023-07-13T04:20:29;21.70;48.60
12329;DHT22;6230;52.390;10.256;2023-07-13T04:22:55;21.70;48.60
12329;DHT22;6230;52.390;10.256;2023-07-13T04:25:21;21.80;48.60
12329;DHT22;6230;52.390;10.256;2023-07-13T04:27:46;21.80;48.50
12329;DHT22;6230;52.390;10.256;2023-07-13T04:30:12;21.80;48.50
12329;DHT22;6230;52.390;10.256;2023-07-13T04:32:38;21.80;48.50
12329;DHT22;6230;52.390;10.256;2023-07-13T04:35:03;21.80;48.60
12329;DHT22;6230;52.390;10.256;2023-07-13T04:37:29;21.80;48.60
12329;DHT22;6230;52.390;10.256;2023-07-13T04:39:55;21.80;48.50
12329;DHT22;6230;52.390;10.256;2023-07-13T04:42:21;21.80;48.50
12329;DHT22;6230;52.390;10.256;2023-07-13T04:44:50;21.90;48.60
12329;DHT22;6230;52.390;10.256;2023-07-13T04:47:16;21.90;48.60
12329;DHT22;6230;52.390;10.256;2023-07-13T04:49:41;21.90;48.70
12329;DHT22;6230;52.390;10.256;2023-07-13T04:52:07;21.90;48.70
12329;DHT22;6230;52.390;10.256;2023-07-13T04:54:34;21.90;48.70
12329;DHT22;6230;52.390;10.256;2023-07-13T04:56:59;21.90;48.60
12329;DHT22;6230;52.390;10.256;2023-07-13T04:59:25;21.90;48.70
12329;DHT22;6230;52.390;10.256;2023-07-13T05:01:51;22.00;48.70
12329;DHT22;6230;52.390;10.256;2023-07-13T05:04:17;22.00;48.70
12329;DHT22;6230;52.390;10.256;2023-07-13T05:06:42;22.10;48.80
12329;DHT22;6230;52.390;10.256;2023-07-13T05:09:08;22.00;48.70
12329;DHT22;6230;52.390;10.256;2023-07-13T05:11:33;22.00;48.70
12329;DHT22;6230;52.390;10.256;2023-07-13T05:13:59;22.00;48.80
12329;DHT22;6230;52.390;10.256;2023-07-13T05:16:27;22.00;48.90
12329;DHT22;6230;52.390;10.256;2023-07-13T05:18:53;22.00;48.90
12329;DHT22;6230;52.390;10.256;2023-07-13T05:21:18;22.00;49.20
12329;DHT22;6230;52.390;10.256;2023-07-13T05:23:44;22.00;49.30
12329;DHT22;6230;52.390;10.256;2023-07-13T05:26:11;22.00;49.30
12329;DHT22;6230;52.390;10.256;2023-07-13T05:28:36;22.00;49.30
12329;DHT22;6230;52.390;10.256;2023-07-13T05:31:02;22.00;49.30
12329;DHT22;6230;52.390;10.256;2023-07-13T05:33:28;22.10;49.30
12329;DHT22;6230;52.390;10.256;2023-07-13T05:35:54;22.10;49.40
12329;DHT22;6230;52.390;10.256;2023-07-13T05:38:19;22.10;49.50
12329;DHT22;6230;52.390;10.256;2023-07-13T05:40:45;22.10;49.40
12329;DHT22;6230;52.390;10.256;2023-07-13T05:43:11;22.10;49.40
12329;DHT22;6230;52.390;10.256;2023-07-13T05:45:37;22.10;49.60
12329;DHT22;6230;52.390;10.256;2023-07-13T05:48:03;22.20;49.60
12329;DHT22;6230;52.390;10.256;2023-07-13T05:50:29;22.20;49.60
12329;DHT22;6230;52.390;10.256;2023-07-13T05:52:54;22.20;49.60
12329;DHT22;6230;52.390;10.256;2023-07-13T05:55:20;22.20;49.60
12329;DHT22;6230;52.390;10.256;2023-07-13T05:57:46;22.30;49.70
12329;DHT22;6230;52.390;10.256;2023-07-13T06:00:12;22.30;49.60
12329;DHT22;6230;52.390;10.256;2023-07-13T06:02:38;22.30;49.60
12329;DHT22;6230;52.390;10.256;2023-07-13T06:05:04;22.40;49.80
12329;DHT22;6230;52.390;10.256;2023-07-13T06:07:30;22.40;49.80
12329;DHT22;6230;52.390;10.256;2023-07-13T06:09:56;22.40;49.90
12329;DHT22;6230;52.390;10.256;2023-07-13T06:12:21;22.40;49.90
12329;DHT22;6230;52.390;10.256;2023-07-13T06:14:47;22.40;49.90
12329;DHT22;6230;52.390;10.256;2023-07-13T06:17:12;22.50;50.00
12329;DHT22;6230;52.390;10.256;2023-07-13T06:19:38;22.40;49.90
12329;DHT22;6230;52.390;10.256;2023-07-13T06:22:05;22.40;50.00
12329;DHT22;6230;52.390;10.256;2023-07-13T06:24:30;22.50;50.00
12329;DHT22;6230;52.390;10.256;2023-07-13T06:26:56;22.50;50.10
12329;DHT22;6230;52.390;10.256;2023-07-13T06:29:22;22.60;50.10
12329;DHT22;6230;52.390;10.256;2023-07-13T06:31:47;22.60;50.00
12329;DHT22;6230;52.390;10.256;2023-07-13T06:34:13;22.60;50.00
12329;DHT22;6230;52.390;10.256;2023-07-13T06:36:38;22.60;50.00
12329;DHT22;6230;52.390;10.256;2023-07-13T06:39:04;22.60;50.00
12329;DHT22;6230;52.390;10.256;2023-07-13T06:41:31;22.60;50.00
12329;DHT22;6230;52.390;10.256;2023-07-13T06:43:58;22.70;49.80
12329;DHT22;6230;52.390;10.256;2023-07-13T06:46:23;22.70;49.70
12329;DHT22;6230;52.390;10.256;2023-07-13T06:48:50;22.80;49.70
12329;DHT22;6230;52.390;10.256;2023-07-13T06:51:15;22.80;49.70
12329;DHT22;6230;52.390;10.256;2023-07-13T06:53:41;22.90;49.80
12329;DHT22;6230;52.390;10.256;2023-07-13T06:56:09;22.80;49.70
12329;DHT22;6230;52.390;10.256;2023-07-13T06:58:35;22.90;49.70
12329;DHT22;6230;52.390;10.256;2023-07-13T07:01:01;22.90;49.60
12329;DHT22;6230;52.390;10.256;2023-07-13T07:03:27;23.00;49.60
12329;DHT22;6230;52.390;10.256;2023-07-13T07:05:52;22.90;49.60
12329;DHT22;6230;52.390;10.256;2023-07-13T07:08:18;22.90;49.90
12329;DHT22;6230;52.390;10.256;2023-07-13T07:10:44;22.90;49.90
12329;DHT22;6230;52.390;10.256;2023-07-13T07:13:10;22.90;49.90
12329;DHT22;6230;52.390;10.256;2023-07-13T07:15:36;22.80;49.90
12329;DHT22;6230;52.390;10.256;2023-07-13T07:18:02;22.90;49.90
12329;DHT22;6230;52.390;10.256;2023-07-13T07:20:27;23.00;49.90
12329;DHT22;6230;52.390;10.256;2023-07-13T07:22:53;23.00;49.80
12329;DHT22;6230;52.390;10.256;2023-07-13T07:25:19;23.10;49.80
12329;DHT22;6230;52.390;10.256;2023-07-13T07:27:45;23.10;49.60
12329;DHT22;6230;52.390;10.256;2023-07-13T07:30:11;23.10;49.60
12329;DHT22;6230;52.390;10.256;2023-07-13T07:32:37;23.10;49.60
12329;DHT22;6230;52.390;10.256;2023-07-13T07:35:03;23.10;49.60
12329;DHT22;6230;52.390;10.256;2023-07-13T07:37:29;23.00;49.60
12329;DHT22;6230;52.390;10.256;2023-07-13T07:39:54;23.00;49.60
12329;DHT22;6230;52.390;10.256;2023-07-13T07:42:20;22.90;49.70
12329;DHT22;6230;52.390;10.256;2023-07-13T07:44:45;22.90;49.70
12329;DHT22;6230;52.390;10.256;2023-07-13T07:47:11;23.00;49.70
12329;DHT22;6230;52.390;10.256;2023-07-13T07:49:37;23.00;49.60
12329;DHT22;6230;52.390;10.256;2023-07-13T07:52:03;23.10;49.60
12329;DHT22;6230;52.390;10.256;2023-07-13T07:54:29;23.10;49.50
12329;DHT22;6230;52.390;10.256;2023-07-13T07:56:54;23.10;49.60
12329;DHT22;6230;52.390;10.256;2023-07-13T07:59:20;23.20;49.60
12329;DHT22;6230;52.390;10.256;2023-07-13T08:01:46;23.20;49.60
12329;DHT22;6230;52.390;10.256;2023-07-13T08:04:13;23.20;49.60
12329;DHT22;6230;52.390;10.256;2023-07-13T08:06:39;23.30;49.60
12329;DHT22;6230;52.390;10.256;2023-07-13T08:09:04;23.50;49.40
12329;DHT22;6230;52.390;10.256;2023-07-13T08:11:30;23.50;49.30
12329;DHT22;6230;52.390;10.256;2023-07-13T08:13:55;23.50;49.30
12329;DHT22;6230;52.390;10.256;2023-07-13T08:16:22;23.50;49.20
12329;DHT22;6230;52.390;10.256;2023-07-13T08:18:47;23.50;49.20
12329;DHT22;6230;52.390;10.256;2023-07-13T08:21:13;23.60;49.30
12329;DHT22;6230;52.390;10.256;2023-07-13T08:23:38;23.60;49.20
12329;DHT22;6230;52.390;10.256;2023-07-13T08:26:04;23.60;49.10
12329;DHT22;6230;52.390;10.256;2023-07-13T08:28:30;23.60;49.20
12329;DHT22;6230;52.390;10.256;2023-07-13T08:31:01;23.60;49.20
12329;DHT22;6230;52.390;10.256;2023-07-13T08:33:26;23.60;49.20
12329;DHT22;6230;52.390;10.256;2023-07-13T08:35:52;23.60;49.20
12329;DHT22;6230;52.390;10.256;2023-07-13T08:38:18;23.60;49.20
12329;DHT22;6230;52.390;10.256;2023-07-13T08:40:43;23.70;49.20
12329;DHT22;6230;52.390;10.256;2023-07-13T08:43:16;23.80;49.20
12329;DHT22;6230;52.390;10.256;2023-07-13T08:48:47;24.00;49.00
12329;DHT22;6230;52.390;10.256;2023-07-13T08:51:30;24.00;48.80
12329;DHT22;6230;52.390;10.256;2023-07-13T08:54:00;24.10;48.80
12329;DHT22;6230;52.390;10.256;2023-07-13T08:56:28;24.20;48.70
12329;DHT22;6230;52.390;10.256;2023-07-13T08:59:13;24.30;48.60
12329;DHT22;6230;52.390;10.256;2023-07-13T09:01:56;24.40;48.60
12329;DHT22;6230;52.390;10.256;2023-07-13T09:05:32;24.40;48.40
12329;DHT22;6230;52.390;10.256;2023-07-13T09:10:29;24.50;48.40
12329;DHT22;6230;52.390;10.256;2023-07-13T09:18:01;24.50;48.30
12329;DHT22;6230;52.390;10.256;2023-07-13T09:21:07;24.70;48.30
12329;DHT22;6230;52.390;10.256;2023-07-13T09:23:31;24.70;48.20
12329;DHT22;6230;52.390;10.256;2023-07-13T09:28:41;24.80;48.00
12329;DHT22;6230;52.390;10.256;2023-07-13T09:31:16;24.80;48.60
12329;DHT22;6230;52.390;10.256;2023-07-13T09:33:42;24.70;48.00
12329;DHT22;6230;52.390;10.256;2023-07-13T09:36:19;24.70;47.90
12329;DHT22;6230;52.390;10.256;2023-07-13T09:38:45;24.60;48.00
12329;DHT22;6230;52.390;10.256;2023-07-13T09:41:23;24.60;48.10
12329;DHT22;6230;52.390;10.256;2023-07-13T09:44:18;24.70;48.70
12329;DHT22;6230;52.390;10.256;2023-07-13T09:46:54;24.70;47.90
12329;DHT22;6230;52.390;10.256;2023-07-13T09:49:25;24.70;47.90
12329;DHT22;6230;52.390;10.256;2023-07-13T09:51:58;24.70;48.00
12329;DHT22;6230;52.390;10.256;2023-07-13T09:54:25;24.70;47.90
12329;DHT22;6230;52.390;10.256;2023-07-13T09:56:56;24.70;47.80
12329;DHT22;6230;52.390;10.256;2023-07-13T09:59:24;24.80;47.90
12329;DHT22;6230;52.390;10.256;2023-07-13T10:01:50;24.70;47.80
12329;DHT22;6230;52.390;10.256;2023-07-13T10:04:20;24.70;47.90
12329;DHT22;6230;52.390;10.256;2023-07-13T10:06:46;24.60;47.90
12329;DHT22;6230;52.390;10.256;2023-07-13T10:09:16;24.50;47.90
12329;DHT22;6230;52.390;10.256;2023-07-13T10:11:42;24.50;48.00
12329;DHT22;6230;52.390;10.256;2023-07-13T10:14:16;24.60;48.10
12329;DHT22;6230;52.390;10.256;2023-07-13T10:16:44;24.70;48.10
12329;DHT22;6230;52.390;10.256;2023-07-13T10:19:14;24.90;47.90
12329;DHT22;6230;52.390;10.256;2023-07-13T10:21:54;25.10;48.40
12329;DHT22;6230;52.390;10.256;2023-07-13T10:24:26;25.30;47.60
12329;DHT22;6230;52.390;10.256;2023-07-13T10:26:55;25.50;47.40
12329;DHT22;6230;52.390;10.256;2023-07-13T10:29:24;25.60;47.40
12329;DHT22;6230;52.390;10.256;2023-07-13T10:31:51;25.60;47.20
12329;DHT22;6230;52.390;10.256;2023-07-13T10:34:17;25.70;47.20
12329;DHT22;6230;52.390;10.256;2023-07-13T10:36:47;25.90;47.10
12329;DHT22;6230;52.390;10.256;2023-07-13T10:39:26;25.90;46.90
12329;DHT22;6230;52.390;10.256;2023-07-13T10:42:02;25.90;46.70
12329;DHT22;6230;52.390;10.256;2023-07-13T10:44:31;25.90;46.70
12329;DHT22;6230;52.390;10.256;2023-07-13T10:47:10;25.80;46.60
12329;DHT22;6230;52.390;10.256;2023-07-13T10:49:38;25.70;46.70
12329;DHT22;6230;52.390;10.256;2023-07-13T10:52:04;25.90;46.90
12329;DHT22;6230;52.390;10.256;2023-07-13T10:54:34;26.00;46.80
12329;DHT22;6230;52.390;10.256;2023-07-13T10:59:41;26.20;46.20
12329;DHT22;6230;52.390;10.256;2023-07-13T11:02:25;26.20;46.30
12329;DHT22;6230;52.390;10.256;2023-07-13T11:04:53;26.20;46.30
12329;DHT22;6230;52.390;10.256;2023-07-13T11:07:30;26.30;46.20
12329;DHT22;6230;52.390;10.256;2023-07-13T11:09:59;26.30;46.00
12329;DHT22;6230;52.390;10.256;2023-07-13T11:12:27;26.40;45.90
12329;DHT22;6230;52.390;10.256;2023-07-13T11:17:36;26.40;45.90
12329;DHT22;6230;52.390;10.256;2023-07-13T11:22:49;26.70;46.00
12329;DHT22;6230;52.390;10.256;2023-07-13T11:33:44;26.90;45.30
12329;DHT22;6230;52.390;10.256;2023-07-13T11:36:07;27.00;45.30
12329;DHT22;6230;52.390;10.256;2023-07-13T11:38:47;27.00;45.00
12329;DHT22;6230;52.390;10.256;2023-07-13T11:41:34;27.10;44.70
12329;DHT22;6230;52.390;10.256;2023-07-13T11:44:20;27.20;44.60
12329;DHT22;6230;52.390;10.256;2023-07-13T11:46:54;27.40;44.20
12329;DHT22;6230;52.390;10.256;2023-07-13T11:49:22;27.60;43.90
12329;DHT22;6230;52.390;10.256;2023-07-13T11:51:49;27.60;44.40
12329;DHT22;6230;52.390;10.256;2023-07-13T11:54:28;27.60;43.80
12329;DHT22;6230;52.390;10.256;2023-07-13T11:57:02;27.80;43.90
12329;DHT22;6230;52.390;10.256;2023-07-13T11:59:30;27.90;43.70
12329;DHT22;6230;52.390;10.256;2023-07-13T12:01:58;28.00;43.50
12329;DHT22;6230;52.390;10.256;2023-07-13T12:04:31;28.00;43.30
12329;DHT22;6230;52.390;10.256;2023-07-13T12:07:04;27.90;43.30
12329;DHT22;6230;52.390;10.256;2023-07-13T12:09:30;27.70;43.40
12329;DHT22;6230;52.390;10.256;2023-07-13T12:11:57;27.50;43.40
12329;DHT22;6230;52.390;10.256;2023-07-13T12:14:25;27.30;43.50
12329;DHT22;6230;52.390;10.256;2023-07-13T12:16:52;27.20;43.70
12329;DHT22;6230;52.390;10.256;2023-07-13T12:19:21;27.20;43.80
12329;DHT22;6230;52.390;10.256;2023-07-13T12:21:48;27.20;43.50
12329;DHT22;6230;52.390;10.256;2023-07-13T12:24:17;27.30;43.70
12329;DHT22;6230;52.390;10.256;2023-07-13T12:26:43;27.50;43.60
12329;DHT22;6230;52.390;10.256;2023-07-13T12:29:15;27.60;43.50
12329;DHT22;6230;52.390;10.256;2023-07-13T12:31:44;27.70;42.90
12329;DHT22;6230;52.390;10.256;2023-07-13T12:39:25;27.20;42.60
12329;DHT22;6230;52.390;10.256;2023-07-13T12:41:52;27.20;43.10
12329;DHT22;6230;52.390;10.256;2023-07-13T12:44:25;27.30;43.10
12329;DHT22;6230;52.390;10.256;2023-07-13T12:46:54;27.40;42.90
12329;DHT22;6230;52.390;10.256;2023-07-13T12:49:25;27.60;42.70
12329;DHT22;6230;52.390;10.256;2023-07-13T12:51:57;27.80;42.60
12329;DHT22;6230;52.390;10.256;2023-07-13T12:54:24;28.00;42.50
12329;DHT22;6230;52.390;10.256;2023-07-13T12:56:51;28.10;42.40
12329;DHT22;6230;52.390;10.256;2023-07-13T12:59:20;28.00;42.30
12329;DHT22;6230;52.390;10.256;2023-07-13T13:01:48;28.10;42.40
12329;DHT22;6230;52.390;10.256;2023-07-13T13:04:14;28.00;42.30
12329;DHT22;6230;52.390;10.256;2023-07-13T13:06:40;27.90;42.20
12329;DHT22;6230;52.390;10.256;2023-07-13T13:09:12;27.80;42.10
12329;DHT22;6230;52.390;10.256;2023-07-13T13:11:39;27.60;42.20
12329;DHT22;6230;52.390;10.256;2023-07-13T13:14:05;27.30;42.30
12329;DHT22;6230;52.390;10.256;2023-07-13T13:16:35;27.20;42.50
12329;DHT22;6230;52.390;10.256;2023-07-13T13:19:14;27.10;42.70
12329;DHT22;6230;52.390;10.256;2023-07-13T13:21:42;27.00;43.00
12329;DHT22;6230;52.390;10.256;2023-07-13T13:24:22;27.10;43.30
12329;DHT22;6230;52.390;10.256;2023-07-13T13:26:50;27.30;43.40
12329;DHT22;6230;52.390;10.256;2023-07-13T13:29:19;27.50;43.30
12329;DHT22;6230;52.390;10.256;2023-07-13T13:31:45;27.90;43.30
12329;DHT22;6230;52.390;10.256;2023-07-13T13:34:13;28.10;43.00
12329;DHT22;6230;52.390;10.256;2023-07-13T13:36:40;28.20;42.70
12329;DHT22;6230;52.390;10.256;2023-07-13T13:39:21;28.20;42.80
12329;DHT22;6230;52.390;10.256;2023-07-13T13:41:47;28.00;42.40
12329;DHT22;6230;52.390;10.256;2023-07-13T13:44:15;27.90;42.50
12329;DHT22;6230;52.390;10.256;2023-07-13T13:46:43;27.70;42.50
12329;DHT22;6230;52.390;10.256;2023-07-13T13:49:22;27.50;42.60
12329;DHT22;6230;52.390;10.256;2023-07-13T13:51:49;27.40;42.80
12329;DHT22;6230;52.390;10.256;2023-07-13T13:54:16;27.30;42.80
12329;DHT22;6230;52.390;10.256;2023-07-13T13:56:43;27.20;42.90
12329;DHT22;6230;52.390;10.256;2023-07-13T13:59:09;27.10;43.00
12329;DHT22;6230;52.390;10.256;2023-07-13T14:01:35;26.90;43.20
12329;DHT22;6230;52.390;10.256;2023-07-13T14:04:01;26.50;43.50
12329;DHT22;6230;52.390;10.256;2023-07-13T14:06:27;26.30;43.90
12329;DHT22;6230;52.390;10.256;2023-07-13T14:08:53;26.10;44.30
12329;DHT22;6230;52.390;10.256;2023-07-13T14:11:21;25.80;44.40
12329;DHT22;6230;52.390;10.256;2023-07-13T14:13:56;25.70;44.60
12329;DHT22;6230;52.390;10.256;2023-07-13T14:16:26;25.50;44.90
12329;DHT22;6230;52.390;10.256;2023-07-13T14:18:53;25.40;45.00
12329;DHT22;6230;52.390;10.256;2023-07-13T14:21:22;25.40;45.20
12329;DHT22;6230;52.390;10.256;2023-07-13T14:23:48;25.40;45.30
12329;DHT22;6230;52.390;10.256;2023-07-13T14:26:20;25.40;45.30
12329;DHT22;6230;52.390;10.256;2023-07-13T14:28:48;25.40;45.50
12329;DHT22;6230;52.390;10.256;2023-07-13T14:31:16;25.40;45.50
12329;DHT22;6230;52.390;10.256;2023-07-13T14:33:42;25.30;45.50
12329;DHT22;6230;52.390;10.256;2023-07-13T14:38:45;25.40;45.80
12329;DHT22;6230;52.390;10.256;2023-07-13T14:41:10;25.40;45.70
12329;DHT22;6230;52.390;10.256;2023-07-13T14:43:36;25.30;45.60
12329;DHT22;6230;52.390;10.256;2023-07-13T14:46:01;25.30;45.70
12329;DHT22;6230;52.390;10.256;2023-07-13T14:48:27;25.20;45.70
12329;DHT22;6230;52.390;10.256;2023-07-13T14:50:57;25.10;45.70
12329;DHT22;6230;52.390;10.256;2023-07-13T14:53:24;25.10;45.80
12329;DHT22;6230;52.390;10.256;2023-07-13T14:55:50;24.90;45.70
12329;DHT22;6230;52.390;10.256;2023-07-13T14:58:16;24.90;45.80
12329;DHT22;6230;52.390;10.256;2023-07-13T15:00:41;24.80;45.90
12329;DHT22;6230;52.390;10.256;2023-07-13T15:03:18;24.80;46.00
12329;DHT22;6230;52.390;10.256;2023-07-13T15:05:45;24.90;45.90
12329;DHT22;6230;52.390;10.256;2023-07-13T15:08:11;24.90;46.50
12329;DHT22;6230;52.390;10.256;2023-07-13T15:10:36;24.90;45.90
12329;DHT22;6230;52.390;10.256;2023-07-13T15:13:17;24.90;45.90
12329;DHT22;6230;52.390;10.256;2023-07-13T15:15:45;25.00;45.90
12329;DHT22;6230;52.390;10.256;2023-07-13T15:18:12;25.10;45.90
12329;DHT22;6230;52.390;10.256;2023-07-13T15:20:38;25.10;45.90
12329;DHT22;6230;52.390;10.256;2023-07-13T15:23:04;25.10;45.80
12329;DHT22;6230;52.390;10.256;2023-07-13T15:25:31;25.10;45.90
12329;DHT22;6230;52.390;10.256;2023-07-13T15:27:59;25.10;46.00
12329;DHT22;6230;52.390;10.256;2023-07-13T15:30:46;25.00;46.00
12329;DHT22;6230;52.390;10.256;2023-07-13T15:33:22;24.90;46.00
12329;DHT22;6230;52.390;10.256;2023-07-13T15:35:49;24.90;46.10
12329;DHT22;6230;52.390;10.256;2023-07-13T15:38:20;24.90;46.20
12329;DHT22;6230;52.390;10.256;2023-07-13T15:40:47;24.80;46.30
12329;DHT22;6230;52.390;10.256;2023-07-13T15:43:14;24.60;46.50
12329;DHT22;6230;52.390;10.256;2023-07-13T15:45:41;24.50;46.60
12329;DHT22;6230;52.390;10.256;2023-07-13T15:48:17;24.40;47.40
12329;DHT22;6230;52.390;10.256;2023-07-13T15:50:50;24.20;46.90
12329;DHT22;6230;52.390;10.256;2023-07-13T15:53:23;24.10;46.90
12329;DHT22;6230;52.390;10.256;2023-07-13T15:55:49;24.10;47.00
12329;DHT22;6230;52.390;10.256;2023-07-13T15:58:15;24.10;47.00
12329;DHT22;6230;52.390;10.256;2023-07-13T16:00:41;24.20;47.00
12329;DHT22;6230;52.390;10.256;2023-07-13T16:03:07;24.20;47.50
12329;DHT22;6230;52.390;10.256;2023-07-13T16:05:34;24.30;46.80
12329;DHT22;6230;52.390;10.256;2023-07-13T16:08:00;24.20;46.70
12329;DHT22;6230;52.390;10.256;2023-07-13T16:10:31;24.10;46.80
12329;DHT22;6230;52.390;10.256;2023-07-13T16:12:57;24.00;46.80
12329;DHT22;6230;52.390;10.256;2023-07-13T16:15:23;23.90;46.90